sensor_id;sensor_type;location;lat;lon;timestamp;pressure;altitude;pressure_sealevel;temperature;humidity
59337;BME280;45115;52.002;4.686;2023-10-19T00:00:52;64983.97;;;11.73;100.00
59337;BME280;45115;52.002;4.686;2023-10-19T00:03:22;64997.34;;;11.80;100.00
59337;BME280;45115;52.002;4.686;2023-10-19T00:05:49;64995.88;;;11.84;100.00
59337;BME280;45115;52.002;4.686;2023-10-19T00:08:15;64993.59;;;11.82;100.00
59337;BME280;45115;52.002;4.686;2023-10-19T00:10:46;65001.88;;;11.84;100.00
59337;BME280;45115;52.002;4.686;2023-10-19T00:13:14;65007.06;;;11.91;100.00
59337;BME280;45115;52.002;4.686;2023-10-19T00:15:44;65001.53;;;11.89;100.00
59337;BME280;45115;52.002;4.686;2023-10-19T00:18:13;64999.25;;;11.87;100.00
59337;BME280;45115;52.002;4.686;2023-10-19T00:20:48;65005.81;;;11.88;100.00
59337;BME280;45115;52.002;4.686;2023-10-19T00:23:19;65007.56;;;11.89;100.00
59337;BME280;45115;52.002;4.686;2023-10-19T00:25:52;65001.63;;;11.91;100.00
59337;BME280;45115;52.002;4.686;2023-10-19T00:28:21;65008.31;;;11.95;100.00
59337;BME280;45115;52.002;4.686;2023-10-19T00:30:50;65018.44;;;12.01;100.00
59337;BME280;45115;52.002;4.686;2023-10-19T00:33:18;65024.19;;;12.09;100.00
59337;BME280;45115;52.002;4.686;2023-10-19T00:35:46;65029.75;;;12.11;100.00
59337;BME280;45115;52.002;4.686;2023-10-19T00:38:16;65027.59;;;12.12;100.00
59337;BME280;45115;52.002;4.686;2023-10-19T00:40:53;65033.16;;;12.14;100.00
59337;BME280;45115;52.002;4.686;2023-10-19T00:43:29;65038.81;;;12.19;100.00
59337;BME280;45115;52.002;4.686;2023-10-19T00:45:59;65036.09;;;12.19;100.00
59337;BME280;45115;52.002;4.686;2023-10-19T00:48:29;65045.63;;;12.25;100.00
59337;BME280;45115;52.002;4.686;2023-10-19T00:50:58;65046.31;;;12.28;100.00
59337;BME280;45115;52.002;4.686;2023-10-19T00:53:36;65050.03;;;12.27;100.00
59337;BME280;45115;52.002;4.686;2023-10-19T00:56:06;65051.50;;;12.35;100.00
59337;BME280;45115;52.002;4.686;2023-10-19T00:58:36;65054.25;;;12.35;100.00
59337;BME280;45115;52.002;4.686;2023-10-19T01:01:06;65057.53;;;12.36;100.00
59337;BME280;45115;52.002;4.686;2023-10-19T01:03:34;65064.91;;;12.43;100.00
59337;BME280;45115;52.002;4.686;2023-10-19T01:06:04;65062.19;;;12.43;100.00
59337;BME280;45115;52.002;4.686;2023-10-19T01:08:37;65072.84;;;12.50;100.00
59337;BME280;45115;52.002;4.686;2023-10-19T01:11:08;65074.09;;;12.53;100.00
59337;BME280;45115;52.002;4.686;2023-10-19T01:13:39;65074.75;;;12.56;100.00
59337;BME280;45115;52.002;4.686;2023-10-19T01:16:13;65087.13;;;12.65;100.00
59337;BME280;45115;52.002;4.686;2023-10-19T01:18:47;65099.59;;;12.76;100.00
59337;BME280;45115;52.002;4.686;2023-10-19T01:21:13;65101.88;;;12.78;100.00
59337;BME280;45115;52.002;4.686;2023-10-19T01:23:46;65116.06;;;12.90;100.00
59337;BME280;45115;52.002;4.686;2023-10-19T01:26:13;65127.28;;;12.98;100.00
59337;BME280;45115;52.002;4.686;2023-10-19T01:28:44;65135.34;;;13.07;100.00
59337;BME280;45115;52.002;4.686;2023-10-19T01:31:15;65161.91;;;13.28;100.00
59337;BME280;45115;52.002;4.686;2023-10-19T01:33:48;65189.06;;;13.50;100.00
59337;BME280;45115;52.002;4.686;2023-10-19T01:36:15;65197.78;;;13.63;100.00
59337;BME280;45115;52.002;4.686;2023-10-19T01:38:51;65208.56;;;13.72;100.00
59337;BME280;45115;52.002;4.686;2023-10-19T01:41:19;65229.56;;;13.91;100.00
59337;BME280;45115;52.002;4.686;2023-10-19T01:43:46;65236.84;;;13.95;100.00
59337;BME280;45115;52.002;4.686;2023-10-19T01:46:15;65239.78;;;14.00;100.00
59337;BME280;45115;52.002;4.686;2023-10-19T01:48:48;65248.88;;;14.08;100.00
59337;BME280;45115;52.002;4.686;2023-10-19T01:51:16;65246.03;;;14.05;100.00
59337;BME280;45115;52.002;4.686;2023-10-19T01:53:42;65252.88;;;14.11;100.00
59337;BME280;45115;52.002;4.686;2023-10-19T01:56:11;65253.31;;;14.09;100.00
59337;BME280;45115;52.002;4.686;2023-10-19T01:58:39;65244.34;;;14.04;100.00
59337;BME280;45115;52.002;4.686;2023-10-19T02:01:06;65244.34;;;14.04;100.00
59337;BME280;45115;52.002;4.686;2023-10-19T02:03:40;65243.75;;;14.03;100.00
59337;BME280;45115;52.002;4.686;2023-10-19T02:06:07;65247.84;;;14.09;100.00
59337;BME280;45115;52.002;4.686;2023-10-19T02:08:45;65248.31;;;14.07;100.00
59337;BME280;45115;52.002;4.686;2023-10-19T02:11:14;65260.03;;;14.13;100.00
59337;BME280;45115;52.002;4.686;2023-10-19T02:13:44;65250.03;;;14.09;100.00
59337;BME280;45115;52.002;4.686;2023-10-19T02:16:12;65248.44;;;14.10;100.00
59337;BME280;45115;52.002;4.686;2023-10-19T02:18:41;65254.44;;;14.10;100.00
59337;BME280;45115;52.002;4.686;2023-10-19T02:21:07;65255.16;;;14.13;100.00
59337;BME280;45115;52.002;4.686;2023-10-19T02:23:38;65247.84;;;14.09;100.00
59337;BME280;45115;52.002;4.686;2023-10-19T02:26:04;65244.47;;;14.06;100.00
59337;BME280;45115;52.002;4.686;2023-10-19T02:28:33;65244.91;;;14.04;100.00
59337;BME280;45115;52.002;4.686;2023-10-19T02:31:02;65247.06;;;14.04;100.00
59337;BME280;45115;52.002;4.686;2023-10-19T02:33:37;65242.63;;;14.02;100.00
59337;BME280;45115;52.002;4.686;2023-10-19T02:36:04;65241.63;;;14.04;100.00
59337;BME280;45115;52.002;4.686;2023-10-19T02:38:39;65248.19;;;14.05;100.00
59337;BME280;45115;52.002;4.686;2023-10-19T02:41:05;65243.75;;;14.03;100.00
59337;BME280;45115;52.002;4.686;2023-10-19T02:43:33;65240.94;;;14.01;100.00
59337;BME280;45115;52.002;4.686;2023-10-19T02:46:00;65246.50;;;14.03;100.00
59337;BME280;45115;52.002;4.686;2023-10-19T02:48:28;65234.78;;;13.98;100.00
59337;BME280;45115;52.002;4.686;2023-10-19T02:50:53;65238.09;;;13.98;100.00
59337;BME280;45115;52.002;4.686;2023-10-19T02:53:20;65231.97;;;13.95;100.00
59337;BME280;45115;52.002;4.686;2023-10-19T02:55:48;65240.94;;;14.01;100.00
59337;BME280;45115;52.002;4.686;2023-10-19T02:58:16;65234.22;;;13.97;100.00
59337;BME280;45115;52.002;4.686;2023-10-19T03:00:45;65238.09;;;13.98;100.00
59337;BME280;45115;52.002;4.686;2023-10-19T03:03:11;65238.44;;;13.94;100.00
59337;BME280;45115;52.002;4.686;2023-10-19T03:05:38;65231.38;;;13.95;100.00
59337;BME280;45115;52.002;4.686;2023-10-19T03:08:06;65225.13;;;13.89;100.00
59337;BME280;45115;52.002;4.686;2023-10-19T03:10:34;65230.13;;;13.91;100.00
59337;BME280;45115;52.002;4.686;2023-10-19T03:13:08;65230.81;;;13.94;100.00
59337;BME280;45115;52.002;4.686;2023-10-19T03:15:35;65244.22;;;14.01;100.00
59337;BME280;45115;52.002;4.686;2023-10-19T03:18:02;65242.44;;;13.97;100.00
59337;BME280;45115;52.002;4.686;2023-10-19T03:20:30;65234.22;;;13.97;100.00
59337;BME280;45115;52.002;4.686;2023-10-19T03:22:58;65239.78;;;14.00;100.00
59337;BME280;45115;52.002;4.686;2023-10-19T03:25:27;65238.09;;;13.98;100.00
59337;BME280;45115;52.002;4.686;2023-10-19T03:28:12;65224.00;;;13.88;100.00
59337;BME280;45115;52.002;4.686;2023-10-19T03:30:42;65216.53;;;13.79;100.00
59337;BME280;45115;52.002;4.686;2023-10-19T03:33:10;65205.75;;;13.70;100.00
59337;BME280;45115;52.002;4.686;2023-10-19T03:35:38;65185.19;;;13.49;100.00
59337;BME280;45115;52.002;4.686;2023-10-19T03:38:07;65174.63;;;13.44;100.00
59337;BME280;45115;52.002;4.686;2023-10-19T03:40:40;65165.88;;;13.32;100.00
59337;BME280;45115;52.002;4.686;2023-10-19T03:43:11;65164.88;;;13.33;100.00
59337;BME280;45115;52.002;4.686;2023-10-19T03:45:43;65158.63;;;13.28;100.00
59337;BME280;45115;52.002;4.686;2023-10-19T03:48:17;65154.66;;;13.24;100.00
59337;BME280;45115;52.002;4.686;2023-10-19T03:50:50;65138.66;;;13.08;100.00
59337;BME280;45115;52.002;4.686;2023-10-19T03:53:17;65138.66;;;13.08;100.00
59337;BME280;45115;52.002;4.686;2023-10-19T03:55:44;65139.91;;;13.11;100.00
59337;BME280;45115;52.002;4.686;2023-10-19T03:58:14;65134.34;;;13.09;100.00
59337;BME280;45115;52.002;4.686;2023-10-19T04:00:41;65141.47;;;13.10;100.00
59337;BME280;45115;52.002;4.686;2023-10-19T04:03:09;65134.78;;;13.07;100.00
59337;BME280;45115;52.002;4.686;2023-10-19T04:05:38;65150.00;;;13.18;100.00
59337;BME280;45115;52.002;4.686;2023-10-19T04:08:06;65160.22;;;13.27;100.00
59337;BME280;45115;52.002;4.686;2023-10-19T04:10:40;65153.06;;;13.25;100.00
59337;BME280;45115;52.002;4.686;2023-10-19T04:13:12;65161.47;;;13.30;100.00
59337;BME280;45115;52.002;4.686;2023-10-19T04:15:39;65165.31;;;13.31;100.00
59337;BME280;45115;52.002;4.686;2023-10-19T04:18:07;65161.91;;;13.28;100.00
59337;BME280;45115;52.002;4.686;2023-10-19T04:20:38;65164.31;;;13.33;100.00
59337;BME280;45115;52.002;4.686;2023-10-19T04:23:22;65171.00;;;13.36;100.00
59337;BME280;45115;52.002;4.686;2023-10-19T04:25:52;65170.53;;;13.38;100.00
59337;BME280;45115;52.002;4.686;2023-10-19T04:28:22;65175.53;;;13.40;100.00
59337;BME280;45115;52.002;4.686;2023-10-19T04:30:56;65178.47;;;13.45;100.00
59337;BME280;45115;52.002;4.686;2023-10-19T04:33:26;65180.75;;;13.48;100.00
59337;BME280;45115;52.002;4.686;2023-10-19T04:35:55;65181.22;;;13.45;100.00
59337;BME280;45115;52.002;4.686;2023-10-19T04:38:25;65178.47;;;13.45;100.00
59337;BME280;45115;52.002;4.686;2023-10-19T04:40:52;65182.34;;;13.47;100.00
59337;BME280;45115;52.002;4.686;2023-10-19T04:43:18;65184.06;;;13.48;100.00
59337;BME280;45115;52.002;4.686;2023-10-19T04:45:47;65177.94;;;13.45;100.00
59337;BME280;45115;52.002;4.686;2023-10-19T04:48:13;65181.91;;;13.49;100.00
59337;BME280;45115;52.002;4.686;2023-10-19T04:50:40;65189.16;;;13.53;100.00
59337;BME280;45115;52.002;4.686;2023-10-19T04:53:08;65188.69;;;13.55;100.00
59337;BME280;45115;52.002;4.686;2023-10-19T04:55:35;65182.00;;;13.51;100.00
59337;BME280;45115;52.002;4.686;2023-10-19T04:58:03;65190.41;;;13.56;100.00
59337;BME280;45115;52.002;4.686;2023-10-19T05:00:31;65189.84;;;13.56;100.00
59337;BME280;45115;52.002;4.686;2023-10-19T05:02:58;65185.41;;;13.54;100.00
59337;BME280;45115;52.002;4.686;2023-10-19T05:05:26;65184.38;;;13.56;100.00
59337;BME280;45115;52.002;4.686;2023-10-19T05:07:53;65180.31;;;13.50;100.00
59337;BME280;45115;52.002;4.686;2023-10-19T05:10:21;65191.44;;;13.55;100.00
59337;BME280;45115;52.002;4.686;2023-10-19T05:12:48;65200.53;;;13.63;100.00
59337;BME280;45115;52.002;4.686;2023-10-19T05:15:14;65197.78;;;13.63;100.00
59337;BME280;45115;52.002;4.686;2023-10-19T05:17:41;65195.97;;;13.59;100.00
59337;BME280;45115;52.002;4.686;2023-10-19T05:20:09;65189.38;;;13.58;100.00
59337;BME280;45115;52.002;4.686;2023-10-19T05:22:36;65199.38;;;13.62;100.00
59337;BME280;45115;52.002;4.686;2023-10-19T05:25:03;65198.25;;;13.61;100.00
59337;BME280;45115;52.002;4.686;2023-10-19T05:27:31;65191.66;;;13.60;100.00
59337;BME280;45115;52.002;4.686;2023-10-19T05:29:57;65189.50;;;13.60;100.00
59337;BME280;45115;52.002;4.686;2023-10-19T05:32:24;65196.19;;;13.64;100.00
59337;BME280;45115;52.002;4.686;2023-10-19T05:34:51;65198.34;;;13.63;100.00
59337;BME280;45115;52.002;4.686;2023-10-19T05:37:17;65201.06;;;13.63;100.00
59337;BME280;45115;52.002;4.686;2023-10-19T05:39:45;65196.56;;;13.59;100.00
59337;BME280;45115;52.002;4.686;2023-10-19T05:42:12;65195.53;;;13.61;100.00
59337;BME280;45115;52.002;4.686;2023-10-19T05:44:40;65194.50;;;13.62;100.00
59337;BME280;45115;52.002;4.686;2023-10-19T05:47:06;65197.22;;;13.62;100.00
59337;BME280;45115;52.002;4.686;2023-10-19T05:49:33;65193.69;;;13.57;100.00
59337;BME280;45115;52.002;4.686;2023-10-19T05:52:00;65182.44;;;13.49;100.00
59337;BME280;45115;52.002;4.686;2023-10-19T05:54:28;65184.72;;;13.51;100.00
59337;BME280;45115;52.002;4.686;2023-10-19T05:56:56;65179.72;;;13.49;100.00
59337;BME280;45115;52.002;4.686;2023-10-19T05:59:23;65189.28;;;13.55;100.00
59337;BME280;45115;52.002;4.686;2023-10-19T06:01:53;65181.78;;;13.46;100.00
59337;BME280;45115;52.002;4.686;2023-10-19T06:04:19;65172.47;;;13.45;100.00
59337;BME280;45115;52.002;4.686;2023-10-19T06:06:47;65182.44;;;13.49;100.00
59337;BME280;45115;52.002;4.686;2023-10-19T06:09:13;65182.81;;;13.44;100.00
59337;BME280;45115;52.002;4.686;2023-10-19T06:11:41;65182.34;;;13.47;100.00
59337;BME280;45115;52.002;4.686;2023-10-19T06:14:08;65182.44;;;13.49;100.00
59337;BME280;45115;52.002;4.686;2023-10-19T06:16:35;65192.09;;;13.58;100.00
59337;BME280;45115;52.002;4.686;2023-10-19T06:19:03;65180.88;;;13.50;100.00
59337;BME280;45115;52.002;4.686;2023-10-19T06:21:30;65194.94;;;13.60;100.00
59337;BME280;45115;52.002;4.686;2023-10-19T06:23:58;65197.78;;;13.63;100.00
59337;BME280;45115;52.002;4.686;2023-10-19T06:26:24;65200.03;;;13.65;100.00
59337;BME280;45115;52.002;4.686;2023-10-19T06:28:51;65206.75;;;13.68;100.00
59337;BME280;45115;52.002;4.686;2023-10-19T06:31:22;65202.31;;;13.67;100.00
59337;BME280;45115;52.002;4.686;2023-10-19T06:33:49;65216.88;;;13.75;100.00
59337;BME280;45115;52.002;4.686;2023-10-19T06:36:17;65212.53;;;13.76;100.00
59337;BME280;45115;52.002;4.686;2023-10-19T06:38:44;65207.44;;;13.71;100.00
59337;BME280;45115;52.002;4.686;2023-10-19T06:41:11;65225.38;;;13.82;100.00
59337;BME280;45115;52.002;4.686;2023-10-19T06:43:38;65225.13;;;13.89;100.00
59337;BME280;45115;52.002;4.686;2023-10-19T06:46:05;65227.78;;;13.87;100.00
59337;BME280;45115;52.002;4.686;2023-10-19T06:48:32;65227.09;;;13.84;100.00
59337;BME280;45115;52.002;4.686;2023-10-19T06:50:59;65226.75;;;13.88;100.00
59337;BME280;45115;52.002;4.686;2023-10-19T06:53:27;65240.38;;;14.00;100.00
59337;BME280;45115;52.002;4.686;2023-10-19T06:55:54;65235.16;;;13.93;100.00
59337;BME280;45115;52.002;4.686;2023-10-19T06:58:21;65236.84;;;13.95;100.00
59337;BME280;45115;52.002;4.686;2023-10-19T07:00:52;65236.38;;;13.97;100.00
59337;BME280;45115;52.002;4.686;2023-10-19T07:03:25;65243.09;;;14.00;100.00
59337;BME280;45115;52.002;4.686;2023-10-19T07:05:53;65240.81;;;13.98;100.00
59337;BME280;45115;52.002;4.686;2023-10-19T07:08:20;65240.38;;;14.00;100.00
59337;BME280;45115;52.002;4.686;2023-10-19T07:10:48;65255.69;;;14.14;100.00
59337;BME280;45115;52.002;4.686;2023-10-19T07:13:16;65259.00;;;14.14;100.00
59337;BME280;45115;52.002;4.686;2023-10-19T07:15:45;65267.53;;;14.22;100.00
59337;BME280;45115;52.002;4.686;2023-10-19T07:18:11;65262.63;;;14.22;100.00
59337;BME280;45115;52.002;4.686;2023-10-19T07:20:39;65266.03;;;14.25;100.00
59337;BME280;45115;52.002;4.686;2023-10-19T07:23:08;65265.59;;;14.27;100.00
59337;BME280;45115;52.002;4.686;2023-10-19T07:25:44;65270.59;;;14.29;100.00
59337;BME280;45115;52.002;4.686;2023-10-19T07:28:15;65278.91;;;14.32;100.00
59337;BME280;45115;52.002;4.686;2023-10-19T07:30:42;65279.56;;;14.35;100.00
59337;BME280;45115;52.002;4.686;2023-10-19T07:33:09;65282.88;;;14.35;100.00
59337;BME280;45115;52.002;4.686;2023-10-19T07:35:38;65277.88;;;14.33;100.00
59337;BME280;45115;52.002;4.686;2023-10-19T07:38:08;65280.72;;;14.36;100.00
59337;BME280;45115;52.002;4.686;2023-10-19T07:40:35;65283.00;;;14.38;100.00
59337;BME280;45115;52.002;4.686;2023-10-19T07:43:02;65273.56;;;14.34;100.00
59337;BME280;45115;52.002;4.686;2023-10-19T07:45:31;65286.28;;;14.38;100.00
59337;BME280;45115;52.002;4.686;2023-10-19T07:47:59;65279.69;;;14.37;100.00
59337;BME280;45115;52.002;4.686;2023-10-19T07:50:31;65290.38;;;14.44;100.00
59337;BME280;45115;52.002;4.686;2023-10-19T07:52:59;65294.44;;;14.50;100.00
59337;BME280;45115;52.002;4.686;2023-10-19T07:55:25;65299.91;;;14.50;100.00
59337;BME280;45115;52.002;4.686;2023-10-19T07:57:52;65302.97;;;14.58;100.00
59337;BME280;45115;52.002;4.686;2023-10-19T08:00:20;65305.84;;;14.61;100.00
59337;BME280;45115;52.002;4.686;2023-10-19T08:02:50;65310.72;;;14.60;100.00
59337;BME280;45115;52.002;4.686;2023-10-19T08:05:17;65318.09;;;14.67;100.00
59337;BME280;45115;52.002;4.686;2023-10-19T08:07:44;65304.59;;;14.57;100.00
59337;BME280;45115;52.002;4.686;2023-10-19T08:10:13;65309.69;;;14.62;100.00
59337;BME280;45115;52.002;4.686;2023-10-19T08:12:41;65318.78;;;14.70;100.00
59337;BME280;45115;52.002;4.686;2023-10-19T08:15:09;65327.31;;;14.77;100.00
59337;BME280;45115;52.002;4.686;2023-10-19T08:17:37;65332.44;;;14.82;100.00
59337;BME280;45115;52.002;4.686;2023-10-19T08:20:10;65328.34;;;14.76;100.00
59337;BME280;45115;52.002;4.686;2023-10-19T08:22:41;65338.00;;;14.84;100.00
59337;BME280;45115;52.002;4.686;2023-10-19T08:25:09;65336.06;;;14.90;100.00
59337;BME280;45115;52.002;4.686;2023-10-19T08:27:38;65340.38;;;14.89;100.00
59337;BME280;45115;52.002;4.686;2023-10-19T08:30:07;65349.94;;;14.95;100.00
59337;BME280;45115;52.002;4.686;2023-10-19T08:32:35;65358.78;;;15.10;100.00
59337;BME280;45115;52.002;4.686;2023-10-19T08:35:02;65379.50;;;15.21;100.00
59337;BME280;45115;52.002;4.686;2023-10-19T08:37:31;65398.50;;;15.42;100.00
59337;BME280;45115;52.002;4.686;2023-10-19T08:39:57;65418.88;;;15.58;100.00
59337;BME280;45115;52.002;4.686;2023-10-19T08:42:24;65436.50;;;15.74;100.00
59337;BME280;45115;52.002;4.686;2023-10-19T08:44:51;65470.63;;;16.04;100.00
59337;BME280;45115;52.002;4.686;2023-10-19T08:47:17;65507.63;;;16.36;100.00
59337;BME280;45115;52.002;4.686;2023-10-19T08:49:45;65557.63;;;16.78;100.00
59337;BME280;45115;52.002;4.686;2023-10-19T08:52:12;65599.91;;;17.18;100.00
59337;BME280;45115;52.002;4.686;2023-10-19T08:54:41;65629.88;;;17.39;100.00
59337;BME280;45115;52.002;4.686;2023-10-19T08:57:09;65641.63;;;17.57;100.00
59337;BME280;45115;52.002;4.686;2023-10-19T08:59:36;65652.91;;;17.64;100.00
59337;BME280;45115;52.002;4.686;2023-10-19T09:02:03;65661.47;;;17.72;100.00
59337;BME280;45115;52.002;4.686;2023-10-19T09:04:32;65658.03;;;17.69;100.00
59337;BME280;45115;52.002;4.686;2023-10-19T09:06:58;65642.19;;;17.57;100.00
59337;BME280;45115;52.002;4.686;2023-10-19T09:09:32;65644.47;;;17.59;100.00
59337;BME280;45115;52.002;4.686;2023-10-19T09:12:00;65635.25;;;17.49;100.00
59337;BME280;45115;52.002;4.686;2023-10-19T09:14:32;65633.63;;;17.50;100.00
59337;BME280;45115;52.002;4.686;2023-10-19T09:17:01;65648.94;;;17.61;100.00
59337;BME280;45115;52.002;4.686;2023-10-19T09:19:39;65663.72;;;17.74;100.00
59337;BME280;45115;52.002;4.686;2023-10-19T09:22:07;65668.88;;;17.78;100.00
59337;BME280;45115;52.002;4.686;2023-10-19T09:24:44;65666.59;;;17.76;100.00
59337;BME280;45115;52.002;4.686;2023-10-19T09:27:13;65639.13;;;17.50;100.00
59337;BME280;45115;52.002;4.686;2023-10-19T09:29:43;65611.28;;;17.28;100.00
59337;BME280;45115;52.002;4.686;2023-10-19T09:32:10;65591.56;;;17.15;100.00
59337;BME280;45115;52.002;4.686;2023-10-19T09:34:39;65586.13;;;17.03;100.00
59337;BME280;45115;52.002;4.686;2023-10-19T09:37:09;65580.06;;;17.03;100.00
59337;BME280;45115;52.002;4.686;2023-10-19T09:39:36;65578.94;;;17.02;100.00
59337;BME280;45115;52.002;4.686;2023-10-19T09:42:06;65586.78;;;17.06;100.00
59337;BME280;45115;52.002;4.686;2023-10-19T09:44:41;65595.34;;;17.14;100.00
59337;BME280;45115;52.002;4.686;2023-10-19T09:47:10;65606.06;;;17.21;100.00
59337;BME280;45115;52.002;4.686;2023-10-19T09:49:40;65615.38;;;17.34;100.00
59337;BME280;45115;52.002;4.686;2023-10-19T09:52:09;65623.94;;;17.41;100.00
59337;BME280;45115;52.002;4.686;2023-10-19T09:54:45;65646.06;;;17.58;100.00
59337;BME280;45115;52.002;4.686;2023-10-19T09:57:18;65669.53;;;17.81;100.00
59337;BME280;45115;52.002;4.686;2023-10-19T09:59:55;65701.47;;;18.10;100.00
59337;BME280;45115;52.002;4.686;2023-10-19T10:02:23;65707.75;;;18.15;100.00
59337;BME280;45115;52.002;4.686;2023-10-19T10:04:51;65714.50;;;18.19;100.00
59337;BME280;45115;52.002;4.686;2023-10-19T10:07:18;65711.63;;;18.16;100.00
59337;BME280;45115;52.002;4.686;2023-10-19T10:09:45;65711.75;;;18.19;100.00
59337;BME280;45115;52.002;4.686;2023-10-19T10:12:16;65706.50;;;18.12;100.00
59337;BME280;45115;52.002;4.686;2023-10-19T10:14:55;65699.66;;;18.06;100.00
59337;BME280;45115;52.002;4.686;2023-10-19T10:17:24;65689.41;;;17.97;100.00
59337;BME280;45115;52.002;4.686;2023-10-19T10:19:53;65690.53;;;17.98;100.00
59337;BME280;45115;52.002;4.686;2023-10-19T10:22:21;65705.34;;;18.11;100.00
59337;BME280;45115;52.002;4.686;2023-10-19T10:24:53;65735.50;;;18.35;100.00
59337;BME280;45115;52.002;4.686;2023-10-19T10:27:21;65746.53;;;18.49;100.00
59337;BME280;45115;52.002;4.686;2023-10-19T10:29:57;65774.50;;;18.74;100.00
59337;BME280;45115;52.002;4.686;2023-10-19T10:32:44;65782.94;;;18.79;100.00
59337;BME280;45115;52.002;4.686;2023-10-19T10:38:11;65782.94;;;18.79;100.00
59337;BME280;45115;52.002;4.686;2023-10-19T10:40:42;65772.78;;;18.72;100.00
59337;BME280;45115;52.002;4.686;2023-10-19T10:43:09;65787.53;;;18.83;100.00
59337;BME280;45115;52.002;4.686;2023-10-19T10:45:37;65790.38;;;18.85;100.00
59337;BME280;45115;52.002;4.686;2023-10-19T10:48:04;65775.19;;;18.77;100.00
59337;BME280;45115;52.002;4.686;2023-10-19T10:50:37;65787.63;;;18.85;100.00
59337;BME280;45115;52.002;4.686;2023-10-19T10:53:04;65749.41;;;18.52;100.00
59337;BME280;45115;52.002;4.686;2023-10-19T10:55:31;65736.28;;;18.40;100.00
59337;BME280;45115;52.002;4.686;2023-10-19T10:57:57;65712.88;;;18.20;100.00
59337;BME280;45115;52.002;4.686;2023-10-19T11:00:25;65734.53;;;18.39;100.00
59337;BME280;45115;52.002;4.686;2023-10-19T11:03:01;65757.28;;;18.56;100.00
59337;BME280;45115;52.002;4.686;2023-10-19T11:05:29;65761.38;;;18.62;100.00
59337;BME280;45115;52.002;4.686;2023-10-19T11:08:05;65769.84;;;18.67;100.00
59337;BME280;45115;52.002;4.686;2023-10-19T11:10:33;65748.16;;;18.48;100.00
59337;BME280;45115;52.002;4.686;2023-10-19T11:13:00;65739.59;;;18.41;100.00
59337;BME280;45115;52.002;4.686;2023-10-19T11:15:27;65737.28;;;18.39;100.00
59337;BME280;45115;52.002;4.686;2023-10-19T11:17:54;65740.16;;;18.41;100.00
59337;BME280;45115;52.002;4.686;2023-10-19T11:20:23;65715.63;;;18.20;100.00
59337;BME280;45115;52.002;4.686;2023-10-19T11:22:50;65742.47;;;18.43;100.00
59337;BME280;45115;52.002;4.686;2023-10-19T11:25:18;65768.13;;;18.66;100.00
59337;BME280;45115;52.002;4.686;2023-10-19T11:27:46;65789.34;;;18.87;100.00
59337;BME280;45115;52.002;4.686;2023-10-19T11:30:13;65795.97;;;18.88;100.00
59337;BME280;45115;52.002;4.686;2023-10-19T11:32:48;65784.56;;;18.78;100.00
59337;BME280;45115;52.002;4.686;2023-10-19T11:35:18;65776.78;;;18.76;100.00
59337;BME280;45115;52.002;4.686;2023-10-19T11:37:50;65765.94;;;18.66;100.00
59337;BME280;45115;52.002;4.686;2023-10-19T11:40:18;65775.53;;;18.72;100.00
59337;BME280;45115;52.002;4.686;2023-10-19T11:42:44;65783.53;;;18.79;100.00
59337;BME280;45115;52.002;4.686;2023-10-19T11:45:12;65798.47;;;18.95;100.00
59337;BME280;45115;52.002;4.686;2023-10-19T11:47:38;65806.81;;;18.98;100.00
59337;BME280;45115;52.002;4.686;2023-10-19T11:50:07;65789.22;;;18.84;100.00
59337;BME280;45115;52.002;4.686;2023-10-19T11:52:33;65781.34;;;18.80;100.00
59337;BME280;45115;52.002;4.686;2023-10-19T11:55:01;65768.22;;;18.68;100.00
59337;BME280;45115;52.002;4.686;2023-10-19T11:57:30;65772.13;;;18.69;100.00
59337;BME280;45115;52.002;4.686;2023-10-19T11:59:58;65776.69;;;18.73;100.00
59337;BME280;45115;52.002;4.686;2023-10-19T12:02:25;65763.47;;;18.59;100.00
59337;BME280;45115;52.002;4.686;2023-10-19T12:04:52;65768.69;;;18.66;100.00
59337;BME280;45115;52.002;4.686;2023-10-19T12:07:19;65756.81;;;18.58;100.00
59337;BME280;45115;52.002;4.686;2023-10-19T12:09:45;65747.13;;;18.50;100.00
59337;BME280;45115;52.002;4.686;2023-10-19T12:12:13;65717.44;;;18.24;100.00
59337;BME280;45115;52.002;4.686;2023-10-19T12:14:40;65713.34;;;18.18;100.00
59337;BME280;45115;52.002;4.686;2023-10-19T12:17:06;65700.91;;;18.09;100.00
59337;BME280;45115;52.002;4.686;2023-10-19T12:19:33;65687.13;;;17.95;100.00
59337;BME280;45115;52.002;4.686;2023-10-19T12:22:00;65678.69;;;17.90;100.00
59337;BME280;45115;52.002;4.686;2023-10-19T12:24:28;65670.00;;;17.79;100.00
59337;BME280;45115;52.002;4.686;2023-10-19T12:26:54;65672.41;;;17.84;100.00
59337;BME280;45115;52.002;4.686;2023-10-19T12:29:23;65661.56;;;17.74;100.00
59337;BME280;45115;52.002;4.686;2023-10-19T12:31:52;65654.63;;;17.66;100.00
59337;BME280;45115;52.002;4.686;2023-10-19T12:34:18;65653.50;;;17.65;100.00
59337;BME280;45115;52.002;4.686;2023-10-19T12:36:46;65644.94;;;17.57;100.00
59337;BME280;45115;52.002;4.686;2023-10-19T12:39:15;65655.97;;;17.72;100.00
59337;BME280;45115;52.002;4.686;2023-10-19T12:42:01;65678.56;;;17.87;100.00
59337;BME280;45115;52.002;4.686;2023-10-19T12:44:30;65669.47;;;17.79;100.00
59337;BME280;45115;52.002;4.686;2023-10-19T12:47:04;65655.88;;;17.69;100.00
59337;BME280;45115;52.002;4.686;2023-10-19T12:49:35;65644.94;;;17.57;100.00
59337;BME280;45115;52.002;4.686;2023-10-19T12:52:01;65636.97;;;17.50;100.00
59337;BME280;45115;52.002;4.686;2023-10-19T12:54:29;65630.81;;;17.47;100.00
59337;BME280;45115;52.002;4.686;2023-10-19T12:56:56;65643.91;;;17.59;100.00
59337;BME280;45115;52.002;4.686;2023-10-19T12:59:23;65642.00;;;17.52;100.00
59337;BME280;45115;52.002;4.686;2023-10-19T13:01:51;65634.69;;;17.48;100.00